Time;durP1;ratioP1;P1;durP2;ratioP2;P2;SDS_P1;SDS_P2;PMS_P1;PMS_P2;Temp;Humidity;BMP_temperature;BMP_pressure;BME280_temperature;BME280_humidity;BME280_pressure;Samples;Min_cycle;Max_cycle;Signal;HPM_P1;HPM_P2
2023/03/01 00:01:33;;;;;;;14.77;6.30;;;1.10;99.90;;;;;;4985784;28;20042;-71
2023/03/01 00:03:59;;;;;;;11.77;6.37;;;1.10;99.90;;;;;;4971541;28;20035;-70
2023/03/01 00:06:26;;;;;;;12.40;6.87;;;1.10;99.90;;;;;;4991939;28;20121;-71
2023/03/01 00:08:52;;;;;;;13.83;6.27;;;1.10;99.90;;;;;;4980572;28;20037;-70
2023/03/01 00:11:24;;;;;;;12.50;5.73;;;1.10;99.90;;;;;;4987671;28;20035;-74
2023/03/01 00:13:52;;;;;;;12.50;6.43;;;1.10;99.90;;;;;;4970188;28;20464;-70
2023/03/01 00:16:22;;;;;;;11.77;6.40;;;1.10;99.90;;;;;;4962784;28;20037;-75
2023/03/01 00:18:48;;;;;;;13.13;6.10;;;1.10;99.90;;;;;;4979434;28;20076;-70
2023/03/01 00:21:14;;;;;;;11.60;5.97;;;1.00;99.90;;;;;;4995883;28;20420;-70
2023/03/01 00:23:40;;;;;;;11.17;6.30;;;1.00;99.90;;;;;;4986528;28;20037;-70
2023/03/01 00:26:09;;;;;;;12.93;6.30;;;1.00;99.90;;;;;;4981722;28;20031;-72
2023/03/01 00:28:35;;;;;;;10.60;5.93;;;0.90;99.90;;;;;;4991339;28;20026;-70
2023/03/01 00:31:09;;;;;;;14.40;6.73;;;1.00;99.90;;;;;;4963372;28;20041;-71
2023/03/01 00:33:35;;;;;;;12.27;6.30;;;1.00;99.90;;;;;;4985352;28;20106;-71
2023/03/01 00:36:01;;;;;;;15.23;6.73;;;1.00;99.90;;;;;;4971266;28;20515;-71
2023/03/01 00:38:27;;;;;;;15.27;6.17;;;0.90;99.90;;;;;;4978392;28;20037;-72
2023/03/01 00:40:52;;;;;;;11.63;6.27;;;0.90;99.90;;;;;;4990993;28;20027;-71
2023/03/01 00:43:18;;;;;;;13.03;5.90;;;0.90;99.90;;;;;;4965826;28;20034;-71
2023/03/01 00:45:44;;;;;;;10.30;5.97;;;0.90;99.90;;;;;;4978125;28;20026;-72
2023/03/01 00:48:09;;;;;;;15.23;6.93;;;0.90;99.90;;;;;;4970107;28;20026;-70
2023/03/01 00:50:35;;;;;;;12.90;6.67;;;0.90;99.90;;;;;;4967014;28;20077;-70
2023/03/01 00:53:01;;;;;;;14.73;6.57;;;0.80;99.90;;;;;;4985431;28;20026;-71
2023/03/01 00:55:26;;;;;;;11.77;6.17;;;0.90;99.90;;;;;;4979120;28;20105;-70
2023/03/01 00:57:52;;;;;;;14.80;6.40;;;0.80;99.90;;;;;;4987125;28;20368;-70
2023/03/01 01:00:19;;;;;;;13.40;7.10;;;0.90;99.90;;;;;;4991749;28;20038;-70
2023/03/01 01:02:45;;;;;;;12.27;6.23;;;0.90;99.90;;;;;;4994186;28;20117;-70
2023/03/01 01:05:12;;;;;;;13.90;7.23;;;0.90;99.90;;;;;;4995185;28;20038;-70
2023/03/01 01:07:38;;;;;;;13.73;6.40;;;0.90;99.90;;;;;;4993607;28;20037;-70
2023/03/01 01:10:04;;;;;;;16.47;6.93;;;0.90;99.90;;;;;;4994058;28;20379;-70
2023/03/01 01:12:30;;;;;;;13.77;6.53;;;0.90;99.90;;;;;;4985556;28;20379;-70
2023/03/01 01:14:55;;;;;;;12.80;6.50;;;0.90;99.90;;;;;;4975532;28;20114;-70
2023/03/01 01:17:21;;;;;;;12.53;6.93;;;1.00;99.90;;;;;;4973966;28;20058;-71
2023/03/01 01:19:46;;;;;;;13.50;6.30;;;1.00;99.90;;;;;;4975780;28;20432;-70
2023/03/01 01:22:12;;;;;;;17.23;7.73;;;1.00;99.90;;;;;;4974393;28;20058;-70
2023/03/01 01:24:38;;;;;;;13.07;6.63;;;0.90;99.90;;;;;;4973802;28;20030;-70
2023/03/01 01:27:03;;;;;;;15.60;6.90;;;0.90;99.90;;;;;;4975418;28;20023;-70
2023/03/01 01:29:29;;;;;;;15.57;7.30;;;0.90;99.90;;;;;;4974668;28;20031;-70
2023/03/01 01:31:54;;;;;;;15.30;7.57;;;1.00;99.90;;;;;;4974271;28;20059;-70
2023/03/01 01:34:21;;;;;;;12.60;6.67;;;0.90;99.90;;;;;;4974072;28;20042;-70
2023/03/01 01:36:53;;;;;;;15.20;6.90;;;0.90;99.90;;;;;;4975523;28;20031;-70
2023/03/01 01:39:19;;;;;;;;;;;0.90;99.90;;;;;;4974600;28;20046;-70
2023/03/01 01:41:45;;;;;;;16.13;7.73;;;0.90;99.90;;;;;;4974812;28;19906;-70
2023/03/01 01:44:15;;;;;;;12.60;6.00;;;0.80;99.90;;;;;;4974142;28;20034;-70
2023/03/01 01:47:01;;;;;;;13.77;6.67;;;0.80;99.90;;;;;;4973535;28;20026;-70
2023/03/01 01:49:36;;;;;;;18.00;7.60;;;0.80;99.90;;;;;;4974408;28;20031;-70
2023/03/01 01:52:11;;;;;;;13.03;7.00;;;0.80;99.90;;;;;;4973976;28;20395;-70
2023/03/01 01:54:48;;;;;;;14.53;7.37;;;0.80;99.90;;;;;;4973167;28;20070;-70
2023/03/01 01:57:19;;;;;;;14.97;7.00;;;0.80;99.90;;;;;;4975294;28;20460;-70
2023/03/01 01:59:50;;;;;;;14.53;7.00;;;0.70;99.90;;;;;;4973294;28;20365;-70
2023/03/01 02:02:16;;;;;;;12.83;6.83;;;0.80;99.90;;;;;;4973306;28;20038;-70
2023/03/01 02:04:42;;;;;;;15.17;6.83;;;0.80;99.90;;;;;;4974437;28;20030;-70
2023/03/01 02:07:15;;;;;;;15.27;7.00;;;0.90;99.90;;;;;;4973680;28;20054;-70
2023/03/01 02:09:47;;;;;;;13.33;7.37;;;0.80;99.90;;;;;;4974316;28;20468;-70
2023/03/01 02:12:15;;;;;;;13.25;7.18;;;0.70;99.90;;;;;;4974920;28;20039;-70
2023/03/01 02:14:40;;;;;;;13.87;6.97;;;0.70;99.90;;;;;;4972968;28;20038;-70
2023/03/01 02:17:06;;;;;;;16.83;7.23;;;0.70;99.90;;;;;;4974580;28;20094;-70
2023/03/01 02:19:39;;;;;;;15.37;6.63;;;0.70;99.90;;;;;;4972563;28;20542;-70
2023/03/01 02:22:15;;;;;;;14.77;7.33;;;0.60;99.90;;;;;;4973613;28;20093;-70
2023/03/01 02:25:07;;;;;;;16.07;7.17;;;0.60;99.90;;;;;;4972681;28;20445;-70
2023/03/01 02:27:54;;;;;;;14.27;7.35;;;0.60;99.90;;;;;;4974067;28;20023;-70
2023/03/01 02:30:22;;;;;;;16.00;7.03;;;0.70;99.90;;;;;;4973283;28;20043;-70
2023/03/01 02:32:49;;;;;;;14.70;7.20;;;0.70;99.90;;;;;;4973847;28;20058;-69
2023/03/01 02:35:17;;;;;;;17.10;7.20;;;0.60;99.90;;;;;;4973107;28;20469;-70
2023/03/01 02:37:44;;;;;;;14.40;7.10;;;0.60;99.90;;;;;;4972560;28;20038;-70
2023/03/01 02:40:17;;;;;;;15.23;7.40;;;0.60;99.90;;;;;;4973154;28;20030;-70
2023/03/01 02:43:01;;;;;;;13.67;7.00;;;0.60;99.90;;;;;;4972529;28;20037;-70
2023/03/01 02:45:27;;;;;;;15.70;7.53;;;0.50;99.90;;;;;;4972151;28;20081;-69
2023/03/01 02:47:56;;;;;;;15.37;8.00;;;0.50;99.90;;;;;;4974442;28;20038;-70
2023/03/01 02:50:28;;;;;;;14.10;7.03;;;0.40;99.90;;;;;;4973983;28;20034;-71
2023/03/01 02:53:01;;;;;;;15.73;7.47;;;0.40;99.90;;;;;;4972910;28;20122;-70
2023/03/01 02:55:27;;;;;;;15.33;7.13;;;0.40;99.90;;;;;;4972036;28;20130;-71
2023/03/01 02:57:54;;;;;;;13.63;7.43;;;0.40;99.90;;;;;;4972902;28;20027;-70
2023/03/01 03:00:24;;;;;;;15.80;7.57;;;0.40;99.90;;;;;;4974039;28;20026;-70
2023/03/01 03:02:53;;;;;;;13.93;7.35;;;0.40;99.90;;;;;;4972461;28;20171;-70
2023/03/01 03:05:30;;;;;;;14.90;7.60;;;0.40;99.90;;;;;;4972632;28;20030;-70
2023/03/01 03:07:58;;;;;;;18.37;7.77;;;0.40;99.90;;;;;;4972426;28;20039;-70
2023/03/01 03:10:28;;;;;;;17.97;7.53;;;0.50;99.90;;;;;;4972610;28;20424;-70
2023/03/01 03:13:11;;;;;;;13.60;7.53;;;0.50;99.90;;;;;;4975148;28;20078;-70
2023/03/01 03:15:38;;;;;;;17.33;8.00;;;0.50;99.90;;;;;;4991507;28;20033;-70
2023/03/01 03:18:07;;;;;;;16.30;7.27;;;0.50;99.90;;;;;;4991661;28;20033;-70
2023/03/01 03:20:33;;;;;;;17.80;8.20;;;0.50;99.90;;;;;;4992577;28;20026;-70
2023/03/01 03:22:59;;;;;;;17.97;7.50;;;0.50;99.90;;;;;;4991909;28;20506;-70
2023/03/01 03:25:27;;;;;;;16.10;8.17;;;0.50;99.90;;;;;;4993500;28;20037;-70
2023/03/01 03:27:59;;;;;;;15.87;7.53;;;0.50;99.90;;;;;;4991279;28;20031;-70
2023/03/01 03:30:30;;;;;;;17.30;7.82;;;0.50;99.90;;;;;;4991943;28;20035;-70
2023/03/01 03:32:57;;;;;;;15.65;8.02;;;0.40;99.90;;;;;;4992010;28;20042;-70
2023/03/01 03:35:32;;;;;;;15.57;7.53;;;0.40;99.90;;;;;;4992715;28;20026;-70
2023/03/01 03:38:03;;;;;;;14.07;7.90;;;0.30;99.90;;;;;;4993177;28;20077;-70
2023/03/01 03:40:37;;;;;;;16.50;8.50;;;0.30;99.90;;;;;;4991862;28;20034;-71
2023/03/01 03:43:05;;;;;;;22.73;8.60;;;0.30;99.90;;;;;;4992022;28;20023;-70
2023/03/01 03:45:33;;;;;;;13.70;7.80;;;0.30;99.90;;;;;;4992487;28;20032;-70
2023/03/01 03:47:59;;;;;;;17.60;8.27;;;0.20;99.90;;;;;;4992990;28;20080;-70
2023/03/01 03:50:24;;;;;;;14.67;7.80;;;0.20;99.90;;;;;;4991591;28;20034;-70
2023/03/01 03:52:50;;;;;;;17.40;8.07;;;0.20;99.90;;;;;;4992446;28;20037;-70
2023/03/01 03:55:19;;;;;;;16.83;8.17;;;0.20;99.90;;;;;;4976639;28;20058;-70
2023/03/01 03:57:51;;;;;;;17.63;8.10;;;0.20;99.90;;;;;;4955529;28;20061;-70
2023/03/01 04:00:20;;;;;;;;;;;0.20;99.90;;;;;;4973864;28;20110;-69
2023/03/01 04:02:46;;;;;;;14.00;6.70;;;0.20;99.90;;;;;;4955488;28;19906;-70
2023/03/01 04:05:14;;;;;;;15.57;7.80;;;0.10;99.90;;;;;;4973611;28;20503;-70
2023/03/01 04:07:41;;;;;;;13.07;6.60;;;0.10;99.90;;;;;;4972821;28;20035;-70
2023/03/01 04:10:10;;;;;;;14.57;7.30;;;0.10;99.90;;;;;;4955905;28;20475;-69
2023/03/01 04:12:36;;;;;;;16.00;7.80;;;0.10;99.90;;;;;;4955455;28;20085;-70
2023/03/01 04:15:12;;;;;;;16.40;7.50;;;0.10;99.90;;;;;;4973332;28;20384;-70
2023/03/01 04:17:45;;;;;;;16.93;7.50;;;0.10;99.90;;;;;;4972465;28;20030;-70
2023/03/01 04:20:13;;;;;;;14.20;6.97;;;0.10;99.90;;;;;;4973369;28;20031;-70
2023/03/01 04:22:39;;;;;;;17.17;7.77;;;0.00;99.90;;;;;;4972370;28;20051;-70
2023/03/01 04:25:06;;;;;;;18.67;8.23;;;0.10;99.90;;;;;;4975451;28;20027;-70
2023/03/01 04:27:35;;;;;;;15.43;8.20;;;0.10;99.90;;;;;;4976637;28;20034;-73
2023/03/01 04:30:02;;;;;;;16.47;7.97;;;0.00;99.90;;;;;;4959311;28;20041;-70
2023/03/01 04:32:27;;;;;;;17.97;7.70;;;0.00;99.90;;;;;;4959257;28;20027;-70
2023/03/01 04:34:53;;;;;;;17.23;8.40;;;0.00;99.90;;;;;;4958684;28;20030;-70
2023/03/01 04:37:18;;;;;;;16.57;7.60;;;0.00;99.90;;;;;;4976600;28;20129;-70
2023/03/01 04:39:47;;;;;;;17.67;8.60;;;0.00;99.90;;;;;;4975679;28;20038;-70
2023/03/01 04:42:13;;;;;;;17.37;8.33;;;0.00;99.90;;;;;;4959350;28;20062;-70
2023/03/01 04:44:39;;;;;;;16.30;8.20;;;-0.10;99.90;;;;;;4976118;28;20027;-70
2023/03/01 04:47:05;;;;;;;16.87;8.53;;;-0.10;99.90;;;;;;4976451;28;20463;-70
2023/03/01 04:49:31;;;;;;;17.77;8.57;;;-0.10;99.90;;;;;;4959047;28;20065;-70
2023/03/01 04:52:01;;;;;;;17.87;8.60;;;-0.10;99.90;;;;;;4975679;28;20047;-70
2023/03/01 04:54:27;;;;;;;18.20;9.17;;;-0.10;99.90;;;;;;4978534;28;20030;-70
2023/03/01 04:56:53;;;;;;;18.03;8.20;;;-0.10;99.90;;;;;;4995172;28;20544;-70
2023/03/01 04:59:22;;;;;;;17.00;8.60;;;-0.20;99.90;;;;;;4995967;28;20109;-70
2023/03/01 05:01:48;;;;;;;18.80;9.03;;;-0.20;99.90;;;;;;4977554;28;20030;-70
2023/03/01 05:04:14;;;;;;;18.17;9.00;;;-0.10;99.90;;;;;;4995646;28;20030;-70
2023/03/01 05:06:39;;;;;;;18.50;8.90;;;-0.20;99.90;;;;;;4977476;28;20037;-70
2023/03/01 05:09:05;;;;;;;19.47;8.60;;;-0.20;99.90;;;;;;4977795;28;20039;-70
2023/03/01 05:11:35;;;;;;;15.00;8.37;;;-0.10;99.90;;;;;;4977896;28;20125;-70
2023/03/01 05:14:02;;;;;;;17.30;8.37;;;-0.10;99.90;;;;;;4977490;28;20053;-69
2023/03/01 05:16:27;;;;;;;18.70;8.37;;;-0.10;99.90;;;;;;4977932;28;20030;-69
2023/03/01 05:18:55;;;;;;;19.50;8.63;;;-0.10;99.90;;;;;;4994341;28;20041;-69
2023/03/01 05:21:21;;;;;;;21.87;8.80;;;-0.10;99.90;;;;;;4977718;28;20048;-68
2023/03/01 05:23:47;;;;;;;16.03;8.07;;;-0.10;99.90;;;;;;4994604;28;20519;-69
2023/03/01 05:26:13;;;;;;;16.00;8.00;;;-0.20;99.90;;;;;;4977751;28;20037;-69
2023/03/01 05:28:39;;;;;;;15.17;7.83;;;-0.20;99.90;;;;;;4976996;28;20541;-70
2023/03/01 05:31:09;;;;;;;17.67;8.30;;;-0.20;99.90;;;;;;4994923;28;20030;-69
2023/03/01 05:33:36;;;;;;;19.77;8.83;;;-0.20;99.90;;;;;;4994970;28;20022;-69
2023/03/01 05:36:01;;;;;;;19.80;9.33;;;-0.20;99.90;;;;;;4993942;28;20061;-69
2023/03/01 05:38:27;;;;;;;19.03;8.77;;;-0.30;99.90;;;;;;4994926;28;20458;-70
2023/03/01 05:40:53;;;;;;;19.17;8.80;;;-0.30;99.90;;;;;;4994550;28;20030;-69
2023/03/01 05:43:19;;;;;;;18.73;9.10;;;-0.40;99.90;;;;;;4977454;28;20042;-69
2023/03/01 05:45:45;;;;;;;19.90;9.23;;;-0.40;99.90;;;;;;4993922;28;20031;-69
2023/03/01 05:48:12;;;;;;;20.60;9.67;;;-0.40;99.90;;;;;;4977086;28;20061;-69
2023/03/01 05:50:40;;;;;;;20.37;9.20;;;-0.40;99.90;;;;;;4976443;28;20034;-70
2023/03/01 05:53:11;;;;;;;17.97;9.17;;;-0.50;99.90;;;;;;4994412;28;20022;-69
2023/03/01 05:55:38;;;;;;;19.10;9.50;;;-0.50;99.90;;;;;;4993598;28;20042;-74
2023/03/01 05:58:06;;;;;;;19.20;9.33;;;-0.40;99.90;;;;;;4994313;28;20114;-69
2023/03/01 06:00:33;;;;;;;19.43;9.23;;;-0.50;99.90;;;;;;4992949;28;20061;-70
2023/03/01 06:02:59;;;;;;;23.20;9.83;;;-0.40;99.90;;;;;;4957104;28;20082;-69
2023/03/01 06:05:26;;;;;;;22.30;9.23;;;-0.50;99.90;;;;;;4957619;28;20052;-69
2023/03/01 06:07:52;;;;;;;18.70;9.37;;;-0.50;99.90;;;;;;4956898;28;20038;-69
2023/03/01 06:10:19;;;;;;;19.70;9.00;;;-0.50;99.90;;;;;;4959038;28;20030;-69
2023/03/01 06:12:45;;;;;;;17.73;9.30;;;-0.50;99.90;;;;;;4993576;28;20033;-69
2023/03/01 06:15:13;;;;;;;19.83;9.27;;;-0.50;99.90;;;;;;4976729;28;20113;-69
2023/03/01 06:17:41;;;;;;;18.30;10.03;;;-0.50;99.90;;;;;;4975725;28;20439;-70
2023/03/01 06:20:16;;;;;;;20.73;10.23;;;-0.50;99.90;;;;;;4993300;28;20034;-69
2023/03/01 06:22:43;;;;;;;21.53;9.63;;;-0.50;99.90;;;;;;4957731;28;20031;-70
2023/03/01 06:25:09;;;;;;;21.53;9.80;;;-0.50;99.90;;;;;;4976954;28;20030;-69
2023/03/01 06:27:35;;;;;;;19.47;9.10;;;-0.40;99.90;;;;;;4993940;28;20038;-69
2023/03/01 06:30:02;;;;;;;21.40;9.57;;;-0.50;99.90;;;;;;4975762;28;20417;-69
2023/03/01 06:32:28;;;;;;;21.10;9.90;;;-0.50;99.90;;;;;;4969532;28;20031;-69
2023/03/01 06:34:53;;;;;;;23.47;9.70;;;-0.50;99.90;;;;;;4953170;28;20041;-73
2023/03/01 06:37:19;;;;;;;19.40;9.70;;;-0.40;99.90;;;;;;4989778;28;20109;-71
2023/03/01 06:39:44;;;;;;;21.23;10.37;;;-0.40;99.90;;;;;;4974279;28;20486;-71
2023/03/01 06:42:10;;;;;;;19.13;9.93;;;-0.40;99.90;;;;;;4979156;28;20034;-71
2023/03/01 06:44:37;;;;;;;22.47;9.67;;;-0.40;99.90;;;;;;4965890;28;20037;-71
2023/03/01 06:47:03;;;;;;;20.00;9.37;;;-0.40;99.90;;;;;;4967840;28;20550;-71
2023/03/01 06:49:29;;;;;;;19.43;9.70;;;-0.40;99.90;;;;;;4959594;28;20113;-71
2023/03/01 06:51:55;;;;;;;21.67;9.50;;;-0.30;99.90;;;;;;4971298;28;20365;-70
2023/03/01 06:54:24;;;;;;;26.83;10.53;;;-0.40;99.90;;;;;;4963381;28;20459;-70
2023/03/01 06:56:50;;;;;;;20.50;9.97;;;-0.30;99.90;;;;;;4963414;28;20456;-71
2023/03/01 06:59:16;;;;;;;21.93;9.10;;;-0.40;99.90;;;;;;4988060;28;20109;-70
2023/03/01 07:01:43;;;;;;;23.00;10.47;;;-0.30;99.90;;;;;;4973929;28;20027;-71
2023/03/01 07:04:09;;;;;;;24.17;9.93;;;-0.30;99.90;;;;;;4961250;28;20531;-71
2023/03/01 07:06:35;;;;;;;21.73;10.17;;;-0.30;99.90;;;;;;4955137;28;20030;-71
2023/03/01 07:09:00;;;;;;;22.27;9.77;;;-0.30;99.90;;;;;;4985082;28;20116;-70
2023/03/01 07:11:26;;;;;;;20.53;9.87;;;-0.30;99.90;;;;;;4984748;28;20045;-70
2023/03/01 07:13:52;;;;;;;24.37;10.77;;;-0.30;99.90;;;;;;4969121;28;20081;-71
2023/03/01 07:16:17;;;;;;;22.97;10.30;;;-0.20;99.90;;;;;;4966006;28;20022;-69
2023/03/01 07:18:43;;;;;;;25.77;10.07;;;-0.20;99.90;;;;;;4964249;28;20037;-72
2023/03/01 07:21:12;;;;;;;23.13;9.97;;;-0.20;99.90;;;;;;4968425;28;20034;-70
2023/03/01 07:23:37;;;;;;;23.37;10.00;;;-0.10;99.90;;;;;;4988586;28;20036;-71
2023/03/01 07:26:03;;;;;;;23.40;10.20;;;-0.10;99.90;;;;;;4966633;28;20034;-70
2023/03/01 07:28:30;;;;;;;21.53;11.20;;;0.00;99.90;;;;;;4981066;28;20034;-71
2023/03/01 07:31:01;;;;;;;22.43;10.33;;;0.10;99.90;;;;;;4962886;28;20534;-71
2023/03/01 07:33:26;;;;;;;27.10;10.13;;;0.10;99.90;;;;;;4976643;28;20026;-70
2023/03/01 07:36:00;;;;;;;24.30;10.03;;;0.20;99.90;;;;;;4955333;28;20185;-71
2023/03/01 07:38:26;;;;;;;24.13;10.17;;;0.20;99.90;;;;;;4972926;28;20121;-70
2023/03/01 07:40:52;;;;;;;24.73;10.20;;;0.30;99.90;;;;;;4983306;28;20042;-74
2023/03/01 07:43:18;;;;;;;22.87;10.10;;;0.30;99.90;;;;;;4977439;28;20023;-71
2023/03/01 07:45:44;;;;;;;24.83;9.73;;;0.30;99.90;;;;;;4970444;28;20026;-75
2023/03/01 07:48:09;;;;;;;21.50;10.33;;;0.40;99.90;;;;;;4978084;28;20484;-70
2023/03/01 07:50:35;;;;;;;22.00;10.93;;;0.40;99.90;;;;;;4982414;28;20031;-71
2023/03/01 07:53:01;;;;;;;24.43;10.90;;;0.40;99.90;;;;;;4984602;28;20456;-73
2023/03/01 07:55:26;;;;;;;28.33;12.47;;;0.40;99.90;;;;;;4975950;28;20083;-70
2023/03/01 07:57:52;;;;;;;23.60;11.10;;;0.50;99.90;;;;;;4972382;28;20031;-71
2023/03/01 08:00:18;;;;;;;33.23;14.20;;;0.50;99.90;;;;;;4977032;28;20030;-71
2023/03/01 08:02:43;;;;;;;22.67;11.20;;;0.50;99.90;;;;;;4995107;28;20105;-71
2023/03/01 08:05:10;;;;;;;22.00;10.80;;;0.60;99.90;;;;;;4964303;28;20462;-70
2023/03/01 08:07:35;;;;;;;21.67;10.77;;;0.60;99.90;;;;;;4992349;28;20553;-70
2023/03/01 08:10:01;;;;;;;22.93;10.57;;;0.70;99.90;;;;;;4962769;28;20057;-70
2023/03/01 08:12:27;;;;;;;23.43;10.57;;;0.70;99.90;;;;;;4987509;28;20066;-71
2023/03/01 08:14:53;;;;;;;20.67;10.13;;;0.80;99.90;;;;;;4969640;28;20042;-71
2023/03/01 08:17:19;;;;;;;22.33;10.63;;;0.90;99.90;;;;;;4962958;28;20555;-72
2023/03/01 08:19:45;;;;;;;24.00;10.23;;;0.90;99.90;;;;;;4991771;28;20022;-71
2023/03/01 08:22:10;;;;;;;24.80;10.80;;;1.00;99.90;;;;;;4976275;28;20031;-71
2023/03/01 08:24:36;;;;;;;26.53;10.63;;;1.00;99.90;;;;;;4985290;28;20026;-71
2023/03/01 08:27:02;;;;;;;22.50;10.20;;;1.10;99.90;;;;;;4982393;28;20042;-71
2023/03/01 08:29:30;;;;;;;22.27;10.13;;;1.10;99.90;;;;;;4974717;28;20492;-71
2023/03/01 08:31:56;;;;;;;21.73;9.70;;;1.10;99.90;;;;;;4979121;28;20042;-71
2023/03/01 08:34:22;;;;;;;22.13;10.73;;;1.20;99.90;;;;;;4971486;28;20039;-71
2023/03/01 08:36:47;;;;;;;19.20;10.37;;;1.30;99.90;;;;;;4978198;28;20365;-74
2023/03/01 08:39:16;;;;;;;23.80;10.53;;;1.30;99.90;;;;;;4972533;28;20022;-72
2023/03/01 08:41:42;;;;;;;25.30;11.13;;;1.40;99.90;;;;;;4961193;28;20122;-71
2023/03/01 08:44:10;;;;;;;27.90;10.50;;;1.40;99.90;;;;;;4972764;28;20031;-71
2023/03/01 08:46:38;;;;;;;21.83;9.97;;;1.40;99.90;;;;;;4958703;28;20031;-71
2023/03/01 08:49:05;;;;;;;22.60;10.67;;;1.50;99.90;;;;;;4958139;28;20117;-70
2023/03/01 08:51:36;;;;;;;21.33;10.53;;;1.50;99.90;;;;;;4976488;28;20115;-70
2023/03/01 08:54:03;;;;;;;22.20;10.33;;;1.60;99.90;;;;;;4975791;28;20034;-70
2023/03/01 08:56:28;;;;;;;23.87;11.07;;;1.60;99.90;;;;;;4973602;28;20055;-70
2023/03/01 08:58:54;;;;;;;22.03;10.43;;;1.70;99.90;;;;;;4975601;28;20106;-71
2023/03/01 09:01:20;;;;;;;20.90;10.43;;;1.70;99.90;;;;;;4974992;28;20424;-71
2023/03/01 09:03:45;;;;;;;20.03;10.30;;;1.80;99.90;;;;;;4974240;28;20031;-70
2023/03/01 09:06:12;;;;;;;22.63;10.53;;;1.80;99.90;;;;;;4974910;28;20082;-71
2023/03/01 09:08:39;;;;;;;22.47;10.23;;;1.90;99.90;;;;;;4974786;28;20023;-70
2023/03/01 09:11:06;;;;;;;20.97;10.43;;;1.90;99.90;;;;;;4974045;28;20030;-70
2023/03/01 09:13:32;;;;;;;24.67;10.43;;;2.00;99.90;;;;;;4974834;28;20027;-70
2023/03/01 09:15:59;;;;;;;23.97;11.07;;;2.00;99.90;;;;;;4974145;28;20027;-70
2023/03/01 09:18:24;;;;;;;24.67;11.10;;;2.10;99.90;;;;;;4975925;28;20110;-70
2023/03/01 09:20:50;;;;;;;20.63;10.13;;;2.10;99.90;;;;;;4974136;28;20449;-71
2023/03/01 09:23:15;;;;;;;21.50;9.87;;;2.20;99.90;;;;;;4974847;28;20368;-70
2023/03/01 09:25:41;;;;;;;24.70;11.37;;;2.20;99.90;;;;;;4974468;28;20022;-70
2023/03/01 09:28:06;;;;;;;21.50;10.70;;;2.20;99.90;;;;;;4973838;28;20118;-70
2023/03/01 09:30:32;;;;;;;24.00;10.67;;;2.30;99.90;;;;;;4974520;28;20507;-70
2023/03/01 09:32:58;;;;;;;25.60;11.53;;;2.30;99.90;;;;;;4975147;28;20468;-72
2023/03/01 09:35:23;;;;;;;25.13;10.33;;;2.30;99.90;;;;;;4974092;28;20484;-70
2023/03/01 09:37:49;;;;;;;26.70;11.00;;;2.40;99.90;;;;;;4974603;28;20492;-71
2023/03/01 09:40:19;;;;;;;26.00;11.23;;;2.40;99.90;;;;;;4975188;28;20023;-70
2023/03/01 09:42:53;;;;;;;19.73;10.10;;;2.50;99.90;;;;;;4974808;28;20031;-71
2023/03/01 09:45:34;;;;;;;23.00;10.30;;;2.50;99.90;;;;;;4974127;28;20027;-70
2023/03/01 09:48:01;;;;;;;23.73;10.35;;;2.60;99.90;;;;;;4974925;28;20022;-70
2023/03/01 09:50:36;;;;;;;20.33;10.50;;;2.60;99.90;;;;;;4975431;28;20042;-70
2023/03/01 09:53:11;;;;;;;24.23;11.27;;;2.70;99.90;;;;;;4973456;28;20031;-70
2023/03/01 09:55:48;;;;;;;20.83;10.73;;;2.70;99.90;;;;;;4974047;28;20138;-70
2023/03/01 09:58:46;;;;;;;23.03;10.33;;;2.80;99.90;;;;;;4974038;28;20026;-71
2023/03/01 10:01:43;;;;;;;25.97;10.80;;;2.80;99.90;;;;;;4974009;28;20380;-71
2023/03/01 10:04:25;;;;;;;19.77;10.63;;;2.80;99.90;;;;;;4974333;28;20030;-70
2023/03/01 10:07:03;;;;;;;20.67;10.17;;;2.90;99.90;;;;;;4973416;28;20034;-71
2023/03/01 10:09:34;;;;;;;24.33;10.63;;;3.00;99.90;;;;;;4973467;28;20026;-70
2023/03/01 10:12:04;;;;;;;23.33;10.53;;;3.00;99.90;;;;;;4973089;28;20030;-70
2023/03/01 10:15:05;;;;;;;24.27;11.13;;;3.10;99.90;;;;;;4973748;28;20138;-70
2023/03/01 10:17:44;;;;;;;25.67;11.17;;;3.10;99.90;;;;;;4974596;28;20431;-70
2023/03/01 10:20:33;;;;;;;24.47;10.60;;;3.20;99.90;;;;;;4974243;28;20062;-71
2023/03/01 10:22:58;;;;;;;25.10;11.47;;;3.30;99.90;;;;;;4973102;28;20043;-70
2023/03/01 10:25:27;;;;;;;23.97;11.33;;;3.30;99.90;;;;;;4973380;28;20029;-70
2023/03/01 10:27:59;;;;;;;27.87;10.47;;;3.40;99.90;;;;;;4972511;28;20033;-71
2023/03/01 10:30:43;;;;;;;25.00;11.17;;;3.40;99.90;;;;;;4974503;28;20447;-70
2023/03/01 10:33:29;;;;;;;21.60;11.27;;;3.50;99.90;;;;;;4972712;28;20034;-70
2023/03/01 10:35:55;;;;;;;23.37;11.07;;;3.50;99.90;;;;;;4972290;28;20392;-70
2023/03/01 10:38:20;;;;;;;24.60;11.50;;;3.50;99.90;;;;;;4974440;28;20101;-70
2023/03/01 10:41:06;;;;;;;23.57;11.60;;;3.60;99.90;;;;;;4973125;28;20126;-70
2023/03/01 10:43:56;;;;;;;22.10;10.97;;;3.70;99.90;;;;;;4974446;28;20023;-70
2023/03/01 10:46:37;;;;;;;23.40;11.40;;;3.80;99.90;;;;;;4974505;28;20027;-70
2023/03/01 10:49:15;;;;;;;23.97;11.43;;;3.90;99.90;;;;;;4973790;28;20042;-70
2023/03/01 10:51:43;;;;;;;24.47;11.10;;;3.90;99.90;;;;;;4974366;28;20045;-70
2023/03/01 10:54:27;;;;;;;21.23;11.10;;;4.00;99.90;;;;;;4973592;28;20031;-71
2023/03/01 10:56:56;;;;;;;23.00;11.63;;;4.10;99.90;;;;;;4973687;28;20136;-71
2023/03/01 10:59:34;;;;;;;23.53;10.77;;;4.20;99.90;;;;;;4972867;28;20190;-70
2023/03/01 11:02:03;;;;;;;22.77;10.97;;;4.20;99.90;;;;;;4972401;28;20065;-71
2023/03/01 11:04:29;;;;;;;20.83;10.97;;;4.30;99.90;;;;;;4973853;28;20085;-71
2023/03/01 11:06:59;;;;;;;23.00;11.43;;;4.40;99.90;;;;;;4973371;28;20035;-70
2023/03/01 11:09:27;;;;;;;21.07;10.87;;;4.40;99.90;;;;;;4972656;28;20030;-70
2023/03/01 11:12:00;;;;;;;21.87;11.30;;;4.50;99.90;;;;;;4972044;28;20057;-70
2023/03/01 11:14:40;;;;;;;21.63;10.87;;;4.50;99.90;;;;;;4974057;28;20033;-70
2023/03/01 11:17:21;;;;;;;27.77;11.43;;;4.60;99.90;;;;;;4973289;28;20031;-70
2023/03/01 11:20:12;;;;;;;27.07;11.47;;;4.70;99.90;;;;;;4973959;28;20031;-70
2023/03/01 11:22:47;;;;;;;26.65;11.90;;;4.80;99.90;;;;;;4928143;28;20174;-70
2023/03/01 11:25:14;;;;;;;24.97;10.60;;;4.90;99.90;;;;;;4973292;28;20122;-71
2023/03/01 11:27:48;;;;;;;23.17;10.57;;;5.00;99.90;;;;;;4972564;28;20084;-70
2023/03/01 11:30:20;;;;;;;19.93;10.87;;;5.10;99.90;;;;;;4971912;28;20042;-70
2023/03/01 11:32:56;;;;;;;23.20;10.80;;;5.10;99.90;;;;;;4972147;28;20027;-70
2023/03/01 11:35:26;;;;;;;22.43;11.03;;;5.10;99.90;;;;;;4976840;28;20031;-71
2023/03/01 11:38:07;;;;;;;23.47;11.10;;;5.20;99.90;;;;;;4976000;28;20042;-69
2023/03/01 11:40:53;;;;;;;21.13;10.13;;;5.30;99.90;;;;;;4977778;28;20022;-69
2023/03/01 11:43:31;;;;;;;22.00;11.07;;;5.40;99.90;;;;;;4976692;28;20027;-71
2023/03/01 11:45:56;;;;;;;21.73;10.37;;;5.40;99.90;;;;;;4975822;28;20121;-71
2023/03/01 11:48:38;;;;;;;21.47;10.90;;;5.50;99.90;;;;;;4977496;28;20106;-71
2023/03/01 11:51:13;;;;;;;21.35;10.60;;;5.60;99.90;;;;;;4975525;28;20069;-70
2023/03/01 11:53:44;;;;;;;24.87;11.97;;;5.60;99.90;;;;;;4976242;28;20357;-70
2023/03/01 11:56:33;;;;;;;20.95;10.68;;;5.70;99.90;;;;;;4975367;28;20055;-70
2023/03/01 11:59:06;;;;;;;21.00;11.03;;;5.80;99.90;;;;;;4977085;28;20076;-71
2023/03/01 12:01:47;;;;;;;23.27;11.00;;;5.90;99.90;;;;;;4977037;28;20034;-71
2023/03/01 12:04:37;;;;;;;19.30;10.23;;;6.00;99.90;;;;;;4976588;28;20134;-70
2023/03/01 12:07:21;;;;;;;21.10;11.63;;;6.10;99.40;;;;;;4976703;28;20058;-70
2023/03/01 12:10:13;;;;;;;22.40;10.33;;;6.10;99.90;;;;;;4975845;28;20027;-70
2023/03/01 12:12:50;;;;;;;19.73;10.50;;;6.20;99.60;;;;;;4947389;28;20046;-71
2023/03/01 12:15:41;;;;;;;23.70;11.17;;;6.30;99.90;;;;;;4975319;28;20043;-71
2023/03/01 12:18:13;;;;;;;22.73;10.83;;;6.40;98.00;;;;;;4975240;28;20379;-70
2023/03/01 12:21:01;;;;;;;17.23;9.97;;;6.60;98.00;;;;;;4975786;28;20070;-70
2023/03/01 12:24:00;;;;;;;20.47;10.87;;;6.80;97.40;;;;;;4975878;28;20027;-69
2023/03/01 12:26:36;;;;;;;21.30;10.23;;;7.00;96.00;;;;;;4976367;28;20106;-70
2023/03/01 12:29:18;;;;;;;22.13;10.87;;;7.10;94.90;;;;;;4975105;28;20030;-70
2023/03/01 12:32:08;;;;;;;21.88;10.52;;;7.30;95.60;;;;;;4975451;28;20034;-70
2023/03/01 12:34:45;;;;;;;21.30;10.93;;;7.60;95.30;;;;;;4976491;28;20039;-70
2023/03/01 12:37:17;;;;;;;20.87;10.57;;;7.90;94.70;;;;;;4976042;28;20038;-70
2023/03/01 12:39:54;;;;;;;17.75;9.98;;;8.20;93.60;;;;;;4975448;28;20031;-70
2023/03/01 12:42:32;;;;;;;20.20;10.77;;;8.40;91.90;;;;;;4975292;28;20099;-71
2023/03/01 12:45:28;;;;;;;20.03;9.67;;;8.60;91.00;;;;;;4974180;28;20034;-71
2023/03/01 12:48:04;;;;;;;18.77;9.20;;;8.80;90.30;;;;;;4975328;28;20114;-70
2023/03/01 12:50:43;;;;;;;20.23;10.23;;;9.00;88.70;;;;;;4975438;28;20046;-70
2023/03/01 12:53:34;;;;;;;21.58;10.27;;;9.20;86.70;;;;;;4974621;28;20026;-71
2023/03/01 12:56:11;;;;;;;19.00;10.85;;;9.40;82.60;;;;;;4974312;28;20500;-71